sensor_id;sensor_type;location;lat;lon;timestamp;P1;durP1;ratioP1;P2;durP2;ratioP2
77085;SDS011;66014;53.134;18.006;2023-07-30T00:00:03;6.80;;;4.40;;
77085;SDS011;66014;53.134;18.006;2023-07-30T00:02:32;5.80;;;4.20;;
77085;SDS011;66014;53.134;18.006;2023-07-30T00:04:57;5.60;;;3.70;;
77085;SDS011;66014;53.134;18.006;2023-07-30T00:07:23;7.00;;;3.90;;
77085;SDS011;66014;53.134;18.006;2023-07-30T00:09:49;5.60;;;3.60;;
77085;SDS011;66014;53.134;18.006;2023-07-30T00:12:15;7.00;;;3.90;;
77085;SDS011;66014;53.134;18.006;2023-07-30T00:14:41;7.00;;;4.10;;
77085;SDS011;66014;53.134;18.006;2023-07-30T00:17:07;5.70;;;3.70;;
77085;SDS011;66014;53.134;18.006;2023-07-30T00:19:33;6.10;;;3.90;;
77085;SDS011;66014;53.134;18.006;2023-07-30T00:21:59;6.90;;;3.80;;
77085;SDS011;66014;53.134;18.006;2023-07-30T00:24:25;7.90;;;4.20;;
77085;SDS011;66014;53.134;18.006;2023-07-30T00:26:51;6.80;;;4.30;;
77085;SDS011;66014;53.134;18.006;2023-07-30T00:29:17;9.40;;;4.30;;
77085;SDS011;66014;53.134;18.006;2023-07-30T00:31:43;7.70;;;4.50;;
77085;SDS011;66014;53.134;18.006;2023-07-30T00:34:09;6.80;;;3.70;;
77085;SDS011;66014;53.134;18.006;2023-07-30T00:36:35;7.90;;;3.90;;
77085;SDS011;66014;53.134;18.006;2023-07-30T00:39:00;7.50;;;3.80;;
77085;SDS011;66014;53.134;18.006;2023-07-30T00:41:26;10.20;;;4.30;;
77085;SDS011;66014;53.134;18.006;2023-07-30T00:43:52;7.70;;;4.50;;
77085;SDS011;66014;53.134;18.006;2023-07-30T00:46:18;7.90;;;4.90;;
77085;SDS011;66014;53.134;18.006;2023-07-30T00:48:43;9.70;;;5.00;;
77085;SDS011;66014;53.134;18.006;2023-07-30T00:51:09;8.40;;;4.30;;
77085;SDS011;66014;53.134;18.006;2023-07-30T00:53:38;7.90;;;4.40;;
77085;SDS011;66014;53.134;18.006;2023-07-30T00:56:04;7.50;;;4.20;;
77085;SDS011;66014;53.134;18.006;2023-07-30T00:58:30;8.90;;;5.40;;
77085;SDS011;66014;53.134;18.006;2023-07-30T01:00:57;8.10;;;4.80;;
77085;SDS011;66014;53.134;18.006;2023-07-30T01:03:23;10.40;;;5.10;;
77085;SDS011;66014;53.134;18.006;2023-07-30T01:05:49;7.70;;;5.20;;
77085;SDS011;66014;53.134;18.006;2023-07-30T01:08:15;9.50;;;5.50;;
77085;SDS011;66014;53.134;18.006;2023-07-30T01:10:41;10.50;;;5.50;;
77085;SDS011;66014;53.134;18.006;2023-07-30T01:13:07;8.20;;;5.20;;
77085;SDS011;66014;53.134;18.006;2023-07-30T01:15:35;7.30;;;4.60;;
77085;SDS011;66014;53.134;18.006;2023-07-30T01:18:03;9.00;;;5.50;;
77085;SDS011;66014;53.134;18.006;2023-07-30T01:20:29;10.00;;;5.50;;
77085;SDS011;66014;53.134;18.006;2023-07-30T01:22:57;9.60;;;6.30;;
77085;SDS011;66014;53.134;18.006;2023-07-30T01:25:24;10.20;;;5.50;;
77085;SDS011;66014;53.134;18.006;2023-07-30T01:27:54;10.10;;;6.20;;
77085;SDS011;66014;53.134;18.006;2023-07-30T01:30:25;11.00;;;5.70;;
77085;SDS011;66014;53.134;18.006;2023-07-30T01:32:54;10.30;;;5.60;;
77085;SDS011;66014;53.134;18.006;2023-07-30T01:35:22;9.70;;;5.70;;
77085;SDS011;66014;53.134;18.006;2023-07-30T01:37:52;8.80;;;5.30;;
77085;SDS011;66014;53.134;18.006;2023-07-30T01:40:19;8.10;;;5.00;;
77085;SDS011;66014;53.134;18.006;2023-07-30T01:42:46;8.90;;;5.60;;
77085;SDS011;66014;53.134;18.006;2023-07-30T01:45:12;11.20;;;7.40;;
77085;SDS011;66014;53.134;18.006;2023-07-30T01:47:37;8.80;;;5.70;;
77085;SDS011;66014;53.134;18.006;2023-07-30T01:50:03;10.10;;;5.30;;
77085;SDS011;66014;53.134;18.006;2023-07-30T01:52:29;8.30;;;5.60;;
77085;SDS011;66014;53.134;18.006;2023-07-30T01:54:55;8.80;;;5.60;;
77085;SDS011;66014;53.134;18.006;2023-07-30T01:57:21;8.40;;;5.30;;
77085;SDS011;66014;53.134;18.006;2023-07-30T01:59:47;9.80;;;5.00;;
77085;SDS011;66014;53.134;18.006;2023-07-30T02:02:13;8.00;;;5.60;;
77085;SDS011;66014;53.134;18.006;2023-07-30T02:04:38;9.40;;;5.80;;
77085;SDS011;66014;53.134;18.006;2023-07-30T02:07:04;8.30;;;5.70;;
77085;SDS011;66014;53.134;18.006;2023-07-30T02:09:30;9.00;;;5.60;;
77085;SDS011;66014;53.134;18.006;2023-07-30T02:11:56;11.10;;;6.50;;
77085;SDS011;66014;53.134;18.006;2023-07-30T02:14:22;11.20;;;6.40;;
77085;SDS011;66014;53.134;18.006;2023-07-30T02:16:49;8.90;;;5.90;;
77085;SDS011;66014;53.134;18.006;2023-07-30T02:19:15;10.80;;;5.80;;
77085;SDS011;66014;53.134;18.006;2023-07-30T02:21:41;9.10;;;6.00;;
77085;SDS011;66014;53.134;18.006;2023-07-30T02:24:08;9.60;;;5.50;;
77085;SDS011;66014;53.134;18.006;2023-07-30T02:26:35;8.90;;;5.30;;
77085;SDS011;66014;53.134;18.006;2023-07-30T02:29:01;10.60;;;5.50;;
77085;SDS011;66014;53.134;18.006;2023-07-30T02:31:27;8.90;;;4.80;;
77085;SDS011;66014;53.134;18.006;2023-07-30T02:33:53;10.30;;;5.60;;
77085;SDS011;66014;53.134;18.006;2023-07-30T02:36:18;10.00;;;5.80;;
77085;SDS011;66014;53.134;18.006;2023-07-30T02:38:44;9.70;;;5.80;;
77085;SDS011;66014;53.134;18.006;2023-07-30T02:41:10;9.40;;;5.40;;
77085;SDS011;66014;53.134;18.006;2023-07-30T02:43:36;11.40;;;5.50;;
77085;SDS011;66014;53.134;18.006;2023-07-30T02:46:02;8.70;;;5.20;;
77085;SDS011;66014;53.134;18.006;2023-07-30T02:48:27;8.80;;;5.40;;
77085;SDS011;66014;53.134;18.006;2023-07-30T02:50:53;10.30;;;6.00;;
77085;SDS011;66014;53.134;18.006;2023-07-30T02:53:19;8.10;;;5.40;;
77085;SDS011;66014;53.134;18.006;2023-07-30T02:55:44;8.40;;;5.30;;
77085;SDS011;66014;53.134;18.006;2023-07-30T02:58:10;8.30;;;4.80;;
77085;SDS011;66014;53.134;18.006;2023-07-30T03:00:36;8.80;;;5.50;;
77085;SDS011;66014;53.134;18.006;2023-07-30T03:03:02;10.10;;;5.30;;
77085;SDS011;66014;53.134;18.006;2023-07-30T03:05:29;9.90;;;5.50;;
77085;SDS011;66014;53.134;18.006;2023-07-30T03:07:55;10.60;;;5.90;;
77085;SDS011;66014;53.134;18.006;2023-07-30T03:10:20;8.80;;;5.90;;
77085;SDS011;66014;53.134;18.006;2023-07-30T03:12:46;10.70;;;6.20;;
77085;SDS011;66014;53.134;18.006;2023-07-30T03:15:12;12.50;;;6.40;;
77085;SDS011;66014;53.134;18.006;2023-07-30T03:17:38;10.70;;;6.00;;
77085;SDS011;66014;53.134;18.006;2023-07-30T03:20:04;9.50;;;5.50;;
77085;SDS011;66014;53.134;18.006;2023-07-30T03:22:33;10.50;;;6.30;;
77085;SDS011;66014;53.134;18.006;2023-07-30T03:24:59;10.50;;;6.10;;
77085;SDS011;66014;53.134;18.006;2023-07-30T03:27:25;9.00;;;6.00;;
77085;SDS011;66014;53.134;18.006;2023-07-30T03:29:51;9.70;;;6.10;;
77085;SDS011;66014;53.134;18.006;2023-07-30T03:32:17;10.40;;;6.00;;
77085;SDS011;66014;53.134;18.006;2023-07-30T03:34:42;12.10;;;7.00;;
77085;SDS011;66014;53.134;18.006;2023-07-30T03:37:08;11.00;;;6.70;;
77085;SDS011;66014;53.134;18.006;2023-07-30T03:39:35;11.50;;;6.60;;
77085;SDS011;66014;53.134;18.006;2023-07-30T03:42:01;11.60;;;6.80;;
77085;SDS011;66014;53.134;18.006;2023-07-30T03:44:27;11.40;;;6.80;;
77085;SDS011;66014;53.134;18.006;2023-07-30T03:46:53;11.00;;;6.20;;
77085;SDS011;66014;53.134;18.006;2023-07-30T03:49:18;14.40;;;6.90;;
77085;SDS011;66014;53.134;18.006;2023-07-30T03:51:44;10.00;;;6.50;;
77085;SDS011;66014;53.134;18.006;2023-07-30T03:54:10;11.60;;;6.80;;
77085;SDS011;66014;53.134;18.006;2023-07-30T03:56:36;14.00;;;7.20;;
77085;SDS011;66014;53.134;18.006;2023-07-30T03:59:02;12.40;;;7.40;;
77085;SDS011;66014;53.134;18.006;2023-07-30T04:01:28;13.90;;;7.20;;
77085;SDS011;66014;53.134;18.006;2023-07-30T04:03:56;11.70;;;6.40;;
77085;SDS011;66014;53.134;18.006;2023-07-30T04:06:21;12.50;;;6.60;;
77085;SDS011;66014;53.134;18.006;2023-07-30T04:08:47;12.20;;;6.40;;
77085;SDS011;66014;53.134;18.006;2023-07-30T04:11:14;12.80;;;6.60;;
77085;SDS011;66014;53.134;18.006;2023-07-30T04:13:40;13.10;;;7.00;;
77085;SDS011;66014;53.134;18.006;2023-07-30T04:16:07;14.50;;;7.40;;
77085;SDS011;66014;53.134;18.006;2023-07-30T04:18:33;13.50;;;7.90;;
77085;SDS011;66014;53.134;18.006;2023-07-30T04:20:59;14.30;;;7.40;;
77085;SDS011;66014;53.134;18.006;2023-07-30T04:23:25;16.50;;;7.80;;
77085;SDS011;66014;53.134;18.006;2023-07-30T04:25:50;12.90;;;6.30;;
77085;SDS011;66014;53.134;18.006;2023-07-30T04:28:16;12.60;;;6.90;;
77085;SDS011;66014;53.134;18.006;2023-07-30T04:30:43;11.80;;;6.70;;
77085;SDS011;66014;53.134;18.006;2023-07-30T04:33:10;16.10;;;7.80;;
77085;SDS011;66014;53.134;18.006;2023-07-30T04:35:35;15.10;;;8.10;;
77085;SDS011;66014;53.134;18.006;2023-07-30T04:38:01;14.90;;;7.00;;
77085;SDS011;66014;53.134;18.006;2023-07-30T04:40:27;12.90;;;7.30;;
77085;SDS011;66014;53.134;18.006;2023-07-30T04:42:53;12.50;;;7.50;;
77085;SDS011;66014;53.134;18.006;2023-07-30T04:45:19;14.90;;;7.80;;
77085;SDS011;66014;53.134;18.006;2023-07-30T04:47:45;13.50;;;7.90;;
77085;SDS011;66014;53.134;18.006;2023-07-30T04:50:11;14.20;;;7.30;;
77085;SDS011;66014;53.134;18.006;2023-07-30T04:52:36;12.50;;;7.40;;
77085;SDS011;66014;53.134;18.006;2023-07-30T04:55:02;13.80;;;7.70;;
77085;SDS011;66014;53.134;18.006;2023-07-30T04:57:28;14.10;;;7.70;;
77085;SDS011;66014;53.134;18.006;2023-07-30T04:59:54;13.10;;;7.60;;
77085;SDS011;66014;53.134;18.006;2023-07-30T05:02:20;12.10;;;7.10;;
77085;SDS011;66014;53.134;18.006;2023-07-30T05:04:45;12.70;;;8.00;;
77085;SDS011;66014;53.134;18.006;2023-07-30T05:07:11;14.80;;;7.90;;
77085;SDS011;66014;53.134;18.006;2023-07-30T05:09:37;13.20;;;8.00;;
77085;SDS011;66014;53.134;18.006;2023-07-30T05:12:03;12.90;;;7.40;;
77085;SDS011;66014;53.134;18.006;2023-07-30T05:14:29;14.60;;;8.10;;
77085;SDS011;66014;53.134;18.006;2023-07-30T05:16:55;12.90;;;7.80;;
77085;SDS011;66014;53.134;18.006;2023-07-30T05:19:21;11.90;;;7.30;;
77085;SDS011;66014;53.134;18.006;2023-07-30T05:21:46;12.90;;;7.90;;
77085;SDS011;66014;53.134;18.006;2023-07-30T05:24:12;14.20;;;9.10;;
77085;SDS011;66014;53.134;18.006;2023-07-30T05:26:38;16.80;;;8.50;;
77085;SDS011;66014;53.134;18.006;2023-07-30T05:29:04;11.90;;;7.30;;
77085;SDS011;66014;53.134;18.006;2023-07-30T05:31:30;13.50;;;7.60;;
77085;SDS011;66014;53.134;18.006;2023-07-30T05:33:55;11.90;;;7.50;;
77085;SDS011;66014;53.134;18.006;2023-07-30T05:36:21;13.50;;;8.50;;
77085;SDS011;66014;53.134;18.006;2023-07-30T05:38:47;12.40;;;8.40;;
77085;SDS011;66014;53.134;18.006;2023-07-30T05:41:13;13.80;;;8.30;;
77085;SDS011;66014;53.134;18.006;2023-07-30T05:43:39;15.10;;;8.70;;
77085;SDS011;66014;53.134;18.006;2023-07-30T05:46:05;12.60;;;8.40;;
77085;SDS011;66014;53.134;18.006;2023-07-30T05:48:30;12.40;;;8.40;;
77085;SDS011;66014;53.134;18.006;2023-07-30T05:50:56;11.50;;;7.80;;
77085;SDS011;66014;53.134;18.006;2023-07-30T05:53:22;13.20;;;7.90;;
77085;SDS011;66014;53.134;18.006;2023-07-30T05:55:50;13.20;;;7.60;;
77085;SDS011;66014;53.134;18.006;2023-07-30T05:58:17;13.90;;;7.60;;
77085;SDS011;66014;53.134;18.006;2023-07-30T06:00:42;11.90;;;7.10;;
77085;SDS011;66014;53.134;18.006;2023-07-30T06:03:08;11.90;;;7.90;;
77085;SDS011;66014;53.134;18.006;2023-07-30T06:05:39;12.30;;;8.00;;
77085;SDS011;66014;53.134;18.006;2023-07-30T06:08:06;11.60;;;7.80;;
77085;SDS011;66014;53.134;18.006;2023-07-30T06:10:36;11.70;;;7.60;;
77085;SDS011;66014;53.134;18.006;2023-07-30T06:13:03;11.10;;;6.80;;
77085;SDS011;66014;53.134;18.006;2023-07-30T06:15:29;11.80;;;7.70;;
77085;SDS011;66014;53.134;18.006;2023-07-30T06:17:56;11.30;;;7.50;;
77085;SDS011;66014;53.134;18.006;2023-07-30T06:20:21;10.30;;;7.30;;
77085;SDS011;66014;53.134;18.006;2023-07-30T06:22:49;12.30;;;7.50;;
77085;SDS011;66014;53.134;18.006;2023-07-30T06:25:17;11.40;;;7.80;;
77085;SDS011;66014;53.134;18.006;2023-07-30T06:27:43;13.20;;;8.80;;
77085;SDS011;66014;53.134;18.006;2023-07-30T06:30:10;12.30;;;7.60;;
77085;SDS011;66014;53.134;18.006;2023-07-30T06:32:36;11.70;;;7.40;;
77085;SDS011;66014;53.134;18.006;2023-07-30T06:35:02;11.70;;;7.30;;
77085;SDS011;66014;53.134;18.006;2023-07-30T06:37:28;12.80;;;8.10;;
77085;SDS011;66014;53.134;18.006;2023-07-30T06:39:54;11.60;;;8.20;;
77085;SDS011;66014;53.134;18.006;2023-07-30T06:42:22;10.70;;;7.50;;
77085;SDS011;66014;53.134;18.006;2023-07-30T06:44:48;11.10;;;8.10;;
77085;SDS011;66014;53.134;18.006;2023-07-30T06:47:14;10.00;;;7.10;;
77085;SDS011;66014;53.134;18.006;2023-07-30T06:49:39;11.90;;;8.00;;
77085;SDS011;66014;53.134;18.006;2023-07-30T06:52:05;10.60;;;7.30;;
77085;SDS011;66014;53.134;18.006;2023-07-30T06:54:31;10.00;;;7.30;;
77085;SDS011;66014;53.134;18.006;2023-07-30T06:56:57;10.10;;;6.90;;
77085;SDS011;66014;53.134;18.006;2023-07-30T06:59:23;9.60;;;7.10;;
77085;SDS011;66014;53.134;18.006;2023-07-30T07:01:49;9.70;;;6.80;;
77085;SDS011;66014;53.134;18.006;2023-07-30T07:04:15;10.30;;;6.90;;
77085;SDS011;66014;53.134;18.006;2023-07-30T07:06:41;8.90;;;6.20;;
77085;SDS011;66014;53.134;18.006;2023-07-30T07:09:06;7.80;;;5.90;;
77085;SDS011;66014;53.134;18.006;2023-07-30T07:11:33;9.50;;;6.40;;
77085;SDS011;66014;53.134;18.006;2023-07-30T07:13:59;8.30;;;6.00;;
77085;SDS011;66014;53.134;18.006;2023-07-30T07:16:25;8.10;;;5.60;;
77085;SDS011;66014;53.134;18.006;2023-07-30T07:18:51;7.30;;;5.80;;
77085;SDS011;66014;53.134;18.006;2023-07-30T07:21:16;8.50;;;5.80;;
77085;SDS011;66014;53.134;18.006;2023-07-30T07:23:42;6.00;;;5.10;;
77085;SDS011;66014;53.134;18.006;2023-07-30T07:26:08;6.50;;;5.20;;
77085;SDS011;66014;53.134;18.006;2023-07-30T07:28:34;6.70;;;5.40;;
77085;SDS011;66014;53.134;18.006;2023-07-30T07:31:00;6.10;;;5.20;;
77085;SDS011;66014;53.134;18.006;2023-07-30T07:33:26;6.50;;;5.40;;
77085;SDS011;66014;53.134;18.006;2023-07-30T07:36:01;6.70;;;5.20;;
77085;SDS011;66014;53.134;18.006;2023-07-30T07:38:33;6.70;;;5.20;;
77085;SDS011;66014;53.134;18.006;2023-07-30T07:41:00;7.40;;;5.40;;
77085;SDS011;66014;53.134;18.006;2023-07-30T07:43:26;7.30;;;5.50;;
77085;SDS011;66014;53.134;18.006;2023-07-30T07:45:53;6.30;;;5.10;;
77085;SDS011;66014;53.134;18.006;2023-07-30T07:48:19;7.50;;;4.80;;
77085;SDS011;66014;53.134;18.006;2023-07-30T07:50:45;6.80;;;5.10;;
77085;SDS011;66014;53.134;18.006;2023-07-30T07:53:11;6.70;;;5.00;;
77085;SDS011;66014;53.134;18.006;2023-07-30T07:55:37;6.30;;;4.80;;
77085;SDS011;66014;53.134;18.006;2023-07-30T07:58:03;6.80;;;4.70;;
77085;SDS011;66014;53.134;18.006;2023-07-30T08:00:29;6.10;;;5.10;;
77085;SDS011;66014;53.134;18.006;2023-07-30T08:02:54;8.40;;;4.90;;
77085;SDS011;66014;53.134;18.006;2023-07-30T08:05:20;7.00;;;4.50;;
77085;SDS011;66014;53.134;18.006;2023-07-30T08:07:48;7.20;;;4.60;;
77085;SDS011;66014;53.134;18.006;2023-07-30T08:10:14;5.00;;;4.30;;
77085;SDS011;66014;53.134;18.006;2023-07-30T08:12:40;5.10;;;4.00;;
77085;SDS011;66014;53.134;18.006;2023-07-30T08:15:06;6.60;;;4.30;;
77085;SDS011;66014;53.134;18.006;2023-07-30T08:17:34;6.20;;;4.50;;
77085;SDS011;66014;53.134;18.006;2023-07-30T08:19:59;6.80;;;4.20;;
77085;SDS011;66014;53.134;18.006;2023-07-30T08:22:25;5.00;;;4.20;;
77085;SDS011;66014;53.134;18.006;2023-07-30T08:24:51;5.40;;;4.30;;
77085;SDS011;66014;53.134;18.006;2023-07-30T08:27:17;7.00;;;4.50;;
77085;SDS011;66014;53.134;18.006;2023-07-30T08:29:43;4.80;;;3.60;;
77085;SDS011;66014;53.134;18.006;2023-07-30T08:32:09;5.80;;;4.00;;
77085;SDS011;66014;53.134;18.006;2023-07-30T08:34:35;6.50;;;3.80;;
77085;SDS011;66014;53.134;18.006;2023-07-30T08:37:01;5.10;;;4.00;;
77085;SDS011;66014;53.134;18.006;2023-07-30T08:39:27;4.50;;;3.70;;
77085;SDS011;66014;53.134;18.006;2023-07-30T08:41:52;7.00;;;4.60;;
77085;SDS011;66014;53.134;18.006;2023-07-30T08:44:18;6.20;;;4.10;;
77085;SDS011;66014;53.134;18.006;2023-07-30T08:46:44;5.30;;;4.20;;
77085;SDS011;66014;53.134;18.006;2023-07-30T08:49:10;5.20;;;4.40;;
77085;SDS011;66014;53.134;18.006;2023-07-30T08:51:38;5.70;;;4.50;;
77085;SDS011;66014;53.134;18.006;2023-07-30T08:54:08;5.90;;;4.60;;
77085;SDS011;66014;53.134;18.006;2023-07-30T08:56:36;5.90;;;4.60;;
77085;SDS011;66014;53.134;18.006;2023-07-30T08:59:02;7.00;;;5.40;;
77085;SDS011;66014;53.134;18.006;2023-07-30T09:01:30;8.50;;;5.20;;
77085;SDS011;66014;53.134;18.006;2023-07-30T09:04:00;7.50;;;4.90;;
77085;SDS011;66014;53.134;18.006;2023-07-30T09:06:26;7.10;;;5.20;;
77085;SDS011;66014;53.134;18.006;2023-07-30T09:08:53;5.30;;;4.50;;
77085;SDS011;66014;53.134;18.006;2023-07-30T09:11:19;5.30;;;4.50;;
77085;SDS011;66014;53.134;18.006;2023-07-30T09:13:46;5.10;;;4.00;;
77085;SDS011;66014;53.134;18.006;2023-07-30T09:16:12;5.60;;;4.10;;
77085;SDS011;66014;53.134;18.006;2023-07-30T09:18:43;6.10;;;3.90;;
77085;SDS011;66014;53.134;18.006;2023-07-30T09:21:15;6.70;;;4.00;;
77085;SDS011;66014;53.134;18.006;2023-07-30T09:23:44;4.50;;;3.70;;
77085;SDS011;66014;53.134;18.006;2023-07-30T09:26:12;5.40;;;4.10;;
77085;SDS011;66014;53.134;18.006;2023-07-30T09:28:39;4.50;;;3.60;;
77085;SDS011;66014;53.134;18.006;2023-07-30T09:31:06;8.10;;;4.10;;
77085;SDS011;66014;53.134;18.006;2023-07-30T09:33:40;8.40;;;4.40;;
77085;SDS011;66014;53.134;18.006;2023-07-30T09:36:07;6.30;;;4.40;;
77085;SDS011;66014;53.134;18.006;2023-07-30T09:38:40;4.60;;;3.90;;
77085;SDS011;66014;53.134;18.006;2023-07-30T09:41:07;5.60;;;4.20;;
77085;SDS011;66014;53.134;18.006;2023-07-30T09:43:35;4.90;;;3.70;;
77085;SDS011;66014;53.134;18.006;2023-07-30T09:46:05;5.60;;;4.20;;
77085;SDS011;66014;53.134;18.006;2023-07-30T09:48:32;5.00;;;4.00;;
77085;SDS011;66014;53.134;18.006;2023-07-30T09:51:00;5.40;;;3.90;;
77085;SDS011;66014;53.134;18.006;2023-07-30T09:53:32;7.20;;;4.20;;
77085;SDS011;66014;53.134;18.006;2023-07-30T09:56:03;5.20;;;4.20;;
77085;SDS011;66014;53.134;18.006;2023-07-30T09:58:31;4.60;;;3.60;;
77085;SDS011;66014;53.134;18.006;2023-07-30T10:01:00;5.50;;;3.40;;
77085;SDS011;66014;53.134;18.006;2023-07-30T10:03:28;5.30;;;3.20;;
77085;SDS011;66014;53.134;18.006;2023-07-30T10:06:03;5.40;;;3.40;;
77085;SDS011;66014;53.134;18.006;2023-07-30T10:08:34;4.60;;;3.20;;
77085;SDS011;66014;53.134;18.006;2023-07-30T10:11:04;5.80;;;3.50;;
77085;SDS011;66014;53.134;18.006;2023-07-30T10:13:33;3.60;;;3.20;;
77085;SDS011;66014;53.134;18.006;2023-07-30T10:15:59;5.60;;;3.40;;
77085;SDS011;66014;53.134;18.006;2023-07-30T10:18:32;5.00;;;3.30;;
77085;SDS011;66014;53.134;18.006;2023-07-30T10:21:07;6.20;;;3.00;;
77085;SDS011;66014;53.134;18.006;2023-07-30T10:23:46;4.20;;;2.90;;
77085;SDS011;66014;53.134;18.006;2023-07-30T10:26:26;4.30;;;2.90;;
77085;SDS011;66014;53.134;18.006;2023-07-30T10:31:42;3.10;;;2.40;;
77085;SDS011;66014;53.134;18.006;2023-07-30T10:34:12;4.90;;;2.90;;
77085;SDS011;66014;53.134;18.006;2023-07-30T10:36:42;3.70;;;2.60;;
77085;SDS011;66014;53.134;18.006;2023-07-30T10:41:43;3.20;;;2.50;;
77085;SDS011;66014;53.134;18.006;2023-07-30T10:44:18;3.80;;;2.50;;
77085;SDS011;66014;53.134;18.006;2023-07-30T10:46:56;3.10;;;2.60;;
77085;SDS011;66014;53.134;18.006;2023-07-30T10:49:23;3.30;;;2.40;;
77085;SDS011;66014;53.134;18.006;2023-07-30T10:51:53;3.90;;;2.60;;
77085;SDS011;66014;53.134;18.006;2023-07-30T10:54:20;4.40;;;2.80;;
77085;SDS011;66014;53.134;18.006;2023-07-30T10:56:47;4.20;;;2.70;;
77085;SDS011;66014;53.134;18.006;2023-07-30T10:59:13;3.60;;;3.00;;
77085;SDS011;66014;53.134;18.006;2023-07-30T11:01:41;3.50;;;2.30;;
77085;SDS011;66014;53.134;18.006;2023-07-30T11:04:09;3.20;;;2.20;;
77085;SDS011;66014;53.134;18.006;2023-07-30T11:06:36;2.70;;;2.20;;
77085;SDS011;66014;53.134;18.006;2023-07-30T11:09:03;2.80;;;1.90;;
77085;SDS011;66014;53.134;18.006;2023-07-30T11:11:30;3.20;;;2.10;;
77085;SDS011;66014;53.134;18.006;2023-07-30T11:13:57;3.60;;;2.10;;
77085;SDS011;66014;53.134;18.006;2023-07-30T11:16:23;6.70;;;1.80;;
77085;SDS011;66014;53.134;18.006;2023-07-30T11:18:49;3.80;;;2.60;;
77085;SDS011;66014;53.134;18.006;2023-07-30T11:21:16;4.10;;;2.30;;
77085;SDS011;66014;53.134;18.006;2023-07-30T11:23:44;2.80;;;2.10;;
77085;SDS011;66014;53.134;18.006;2023-07-30T11:26:15;3.20;;;2.40;;
77085;SDS011;66014;53.134;18.006;2023-07-30T11:28:43;3.40;;;2.30;;
77085;SDS011;66014;53.134;18.006;2023-07-30T11:31:17;5.00;;;2.00;;
77085;SDS011;66014;53.134;18.006;2023-07-30T11:33:46;3.00;;;2.00;;
77085;SDS011;66014;53.134;18.006;2023-07-30T11:36:17;4.00;;;2.30;;
77085;SDS011;66014;53.134;18.006;2023-07-30T11:38:45;2.90;;;2.00;;
77085;SDS011;66014;53.134;18.006;2023-07-30T11:41:12;3.20;;;2.30;;
77085;SDS011;66014;53.134;18.006;2023-07-30T11:43:41;2.80;;;2.10;;
77085;SDS011;66014;53.134;18.006;2023-07-30T11:46:09;3.70;;;2.10;;
77085;SDS011;66014;53.134;18.006;2023-07-30T11:48:38;4.30;;;2.40;;
77085;SDS011;66014;53.134;18.006;2023-07-30T11:51:05;3.70;;;2.30;;
77085;SDS011;66014;53.134;18.006;2023-07-30T11:56:27;4.10;;;2.30;;
77085;SDS011;66014;53.134;18.006;2023-07-30T11:58:58;3.40;;;2.40;;
77085;SDS011;66014;53.134;18.006;2023-07-30T12:01:31;4.20;;;2.60;;
77085;SDS011;66014;53.134;18.006;2023-07-30T12:04:00;3.50;;;2.40;;
77085;SDS011;66014;53.134;18.006;2023-07-30T12:06:43;3.90;;;2.50;;
77085;SDS011;66014;53.134;18.006;2023-07-30T12:09:17;2.90;;;2.40;;
77085;SDS011;66014;53.134;18.006;2023-07-30T12:14:29;3.50;;;2.10;;
77085;SDS011;66014;53.134;18.006;2023-07-30T12:17:08;2.80;;;2.20;;
77085;SDS011;66014;53.134;18.006;2023-07-30T12:19:34;3.20;;;2.30;;
77085;SDS011;66014;53.134;18.006;2023-07-30T12:22:03;3.60;;;1.90;;
77085;SDS011;66014;53.134;18.006;2023-07-30T12:24:29;2.70;;;2.00;;
77085;SDS011;66014;53.134;18.006;2023-07-30T12:26:55;3.10;;;2.00;;
77085;SDS011;66014;53.134;18.006;2023-07-30T12:29:21;2.90;;;2.00;;
77085;SDS011;66014;53.134;18.006;2023-07-30T12:31:48;5.20;;;2.30;;
77085;SDS011;66014;53.134;18.006;2023-07-30T12:34:18;2.90;;;2.00;;
77085;SDS011;66014;53.134;18.006;2023-07-30T12:36:48;2.70;;;1.90;;
77085;SDS011;66014;53.134;18.006;2023-07-30T12:39:14;4.10;;;2.00;;
77085;SDS011;66014;53.134;18.006;2023-07-30T12:41:40;2.60;;;2.00;;
77085;SDS011;66014;53.134;18.006;2023-07-30T12:44:06;2.80;;;2.20;;
77085;SDS011;66014;53.134;18.006;2023-07-30T12:46:32;2.70;;;2.00;;
77085;SDS011;66014;53.134;18.006;2023-07-30T12:48:58;2.50;;;1.80;;
77085;SDS011;66014;53.134;18.006;2023-07-30T12:51:28;3.90;;;1.90;;
77085;SDS011;66014;53.134;18.006;2023-07-30T12:53:54;4.80;;;1.80;;
77085;SDS011;66014;53.134;18.006;2023-07-30T12:56:20;2.90;;;1.90;;
77085;SDS011;66014;53.134;18.006;2023-07-30T12:58:46;2.90;;;1.90;;
77085;SDS011;66014;53.134;18.006;2023-07-30T13:01:12;3.20;;;2.00;;
77085;SDS011;66014;53.134;18.006;2023-07-30T13:03:38;3.40;;;1.90;;
77085;SDS011;66014;53.134;18.006;2023-07-30T13:06:04;4.30;;;2.00;;
77085;SDS011;66014;53.134;18.006;2023-07-30T13:08:32;2.60;;;1.80;;
77085;SDS011;66014;53.134;18.006;2023-07-30T13:10:58;3.00;;;1.70;;
77085;SDS011;66014;53.134;18.006;2023-07-30T13:13:23;3.50;;;1.80;;
77085;SDS011;66014;53.134;18.006;2023-07-30T13:15:49;2.90;;;1.70;;
77085;SDS011;66014;53.134;18.006;2023-07-30T13:18:15;3.20;;;1.90;;
77085;SDS011;66014;53.134;18.006;2023-07-30T13:20:41;3.60;;;1.80;;
77085;SDS011;66014;53.134;18.006;2023-07-30T13:23:07;3.30;;;1.90;;
77085;SDS011;66014;53.134;18.006;2023-07-30T13:25:33;2.50;;;1.70;;
77085;SDS011;66014;53.134;18.006;2023-07-30T13:27:58;3.50;;;2.40;;
77085;SDS011;66014;53.134;18.006;2023-07-30T13:30:24;2.30;;;1.60;;
77085;SDS011;66014;53.134;18.006;2023-07-30T13:32:50;3.50;;;1.90;;
77085;SDS011;66014;53.134;18.006;2023-07-30T13:35:20;3.80;;;1.80;;
77085;SDS011;66014;53.134;18.006;2023-07-30T13:37:45;3.30;;;1.90;;
77085;SDS011;66014;53.134;18.006;2023-07-30T13:40:11;2.90;;;1.70;;
77085;SDS011;66014;53.134;18.006;2023-07-30T13:42:37;3.00;;;1.70;;
77085;SDS011;66014;53.134;18.006;2023-07-30T13:45:03;2.90;;;1.80;;
77085;SDS011;66014;53.134;18.006;2023-07-30T13:47:29;3.80;;;1.80;;
77085;SDS011;66014;53.134;18.006;2023-07-30T13:49:55;4.00;;;1.60;;
77085;SDS011;66014;53.134;18.006;2023-07-30T13:52:21;2.80;;;1.40;;
77085;SDS011;66014;53.134;18.006;2023-07-30T13:54:47;2.40;;;1.40;;
77085;SDS011;66014;53.134;18.006;2023-07-30T13:57:13;4.70;;;1.40;;
77085;SDS011;66014;53.134;18.006;2023-07-30T13:59:48;3.10;;;1.60;;
77085;SDS011;66014;53.134;18.006;2023-07-30T14:02:17;2.40;;;1.20;;
77085;SDS011;66014;53.134;18.006;2023-07-30T14:04:44;3.10;;;1.70;;
77085;SDS011;66014;53.134;18.006;2023-07-30T14:07:09;3.80;;;1.50;;
77085;SDS011;66014;53.134;18.006;2023-07-30T14:09:35;2.30;;;1.40;;
77085;SDS011;66014;53.134;18.006;2023-07-30T14:12:03;2.40;;;1.50;;
77085;SDS011;66014;53.134;18.006;2023-07-30T14:14:29;2.50;;;1.40;;
77085;SDS011;66014;53.134;18.006;2023-07-30T14:16:55;3.40;;;1.60;;
77085;SDS011;66014;53.134;18.006;2023-07-30T14:19:22;2.00;;;1.40;;
77085;SDS011;66014;53.134;18.006;2023-07-30T14:21:50;2.40;;;1.50;;
77085;SDS011;66014;53.134;18.006;2023-07-30T14:24:16;2.40;;;1.60;;
77085;SDS011;66014;53.134;18.006;2023-07-30T14:26:42;2.70;;;1.40;;
77085;SDS011;66014;53.134;18.006;2023-07-30T14:29:08;5.80;;;1.30;;
77085;SDS011;66014;53.134;18.006;2023-07-30T14:31:33;2.00;;;1.20;;
77085;SDS011;66014;53.134;18.006;2023-07-30T14:33:59;2.30;;;1.40;;
77085;SDS011;66014;53.134;18.006;2023-07-30T14:36:25;2.50;;;1.40;;
77085;SDS011;66014;53.134;18.006;2023-07-30T14:38:51;3.30;;;1.30;;